createdAt,value
2018-06-28T00:00:32.804Z,90.30
2018-06-28T00:03:02.112Z,89.40
2018-06-28T00:05:31.548Z,90.30
2018-06-28T00:08:00.812Z,90.20
2018-06-28T00:10:30.131Z,89.40
2018-06-28T00:12:59.456Z,90.00
2018-06-28T00:15:28.763Z,90.10
2018-06-28T00:17:58.134Z,90.20
2018-06-28T00:20:27.432Z,90.10
2018-06-28T00:22:56.721Z,90.60
2018-06-28T00:25:26.589Z,90.60
2018-06-28T00:27:56.140Z,90.40
2018-06-28T00:30:25.712Z,90.70
2018-06-28T00:32:55.412Z,90.20
2018-06-28T00:35:24.885Z,90.30
2018-06-28T00:37:54.316Z,90.40
2018-06-28T00:40:23.594Z,90.10
2018-06-28T00:42:52.940Z,90.50
2018-06-28T00:45:22.252Z,90.90
2018-06-28T00:47:51.560Z,90.90
2018-06-28T00:50:20.868Z,91.20
2018-06-28T00:52:50.179Z,91.20
2018-06-28T00:55:19.589Z,91.60
2018-06-28T00:57:49.140Z,92.10
2018-06-28T01:00:18.627Z,91.70
2018-06-28T01:02:48.236Z,91.80
2018-06-28T01:05:17.580Z,91.90
2018-06-28T01:07:46.915Z,91.90
2018-06-28T01:10:16.247Z,91.50
2018-06-28T01:12:45.602Z,91.60
2018-06-28T01:15:14.924Z,92.00
2018-06-28T01:17:44.291Z,92.00
2018-06-28T01:20:13.639Z,92.00
2018-06-28T01:22:42.976Z,92.10
2018-06-28T01:25:12.316Z,91.80
2018-06-28T01:27:41.617Z,92.10
2018-06-28T01:30:11.070Z,91.90
2018-06-28T01:32:40.605Z,92.40
2018-06-28T01:35:09.895Z,92.40
2018-06-28T01:37:39.323Z,92.30
2018-06-28T01:40:08.603Z,92.30
2018-06-28T01:42:54.857Z,92.30
2018-06-28T01:45:24.330Z,92.40
2018-06-28T01:47:53.825Z,92.80
2018-06-28T01:50:23.271Z,92.60
2018-06-28T01:52:52.918Z,92.70
2018-06-28T01:55:22.380Z,93.00
2018-06-28T01:57:51.716Z,93.30
2018-06-28T02:00:21.048Z,93.40
2018-06-28T02:02:50.432Z,93.20
2018-06-28T02:05:19.724Z,93.40
2018-06-28T02:07:49.152Z,93.60
2018-06-28T02:10:18.625Z,93.50
2018-06-28T02:12:48.270Z,93.70
2018-06-28T02:15:17.792Z,93.60
2018-06-28T02:17:47.372Z,93.60
2018-06-28T02:20:16.716Z,93.80
2018-06-28T02:22:46.029Z,93.60
2018-06-28T02:25:15.415Z,93.60
2018-06-28T02:27:44.704Z,93.40
2018-06-28T02:30:14.017Z,93.90
2018-06-28T02:32:43.319Z,93.60
2018-06-28T02:35:12.629Z,93.50
2018-06-28T02:37:41.965Z,93.50
2018-06-28T02:40:11.272Z,93.20
2018-06-28T02:42:40.641Z,93.30
2018-06-28T02:45:09.980Z,93.10
2018-06-28T02:47:39.260Z,93.20
2018-06-28T02:50:08.644Z,93.20
2018-06-28T02:52:37.968Z,93.40
2018-06-28T02:55:07.331Z,93.50
2018-06-28T02:57:36.696Z,93.40
2018-06-28T03:00:06.463Z,93.60
2018-06-28T03:02:35.778Z,93.30
2018-06-28T03:05:05.160Z,93.20
2018-06-28T03:07:34.421Z,93.40
2018-06-28T03:10:03.819Z,93.50
2018-06-28T03:12:33.174Z,93.20
2018-06-28T03:15:02.520Z,93.60
2018-06-28T03:17:31.840Z,93.40
2018-06-28T03:20:01.217Z,93.30
2018-06-28T03:22:30.545Z,93.50
2018-06-28T03:24:59.845Z,93.70
2018-06-28T03:27:29.129Z,93.70
2018-06-28T03:29:58.445Z,93.70
2018-06-28T03:32:27.741Z,94.00
2018-06-28T03:34:57.081Z,94.30
2018-06-28T03:37:26.357Z,94.40
2018-06-28T03:39:55.691Z,94.40
2018-06-28T03:42:24.952Z,94.80
2018-06-28T03:44:54.306Z,94.40
2018-06-28T03:47:23.669Z,94.40
2018-06-28T03:49:52.995Z,94.40
2018-06-28T03:52:22.316Z,94.50
2018-06-28T03:54:51.625Z,94.70
2018-06-28T03:57:20.950Z,94.40
2018-06-28T03:59:50.331Z,94.90
2018-06-28T04:02:19.781Z,94.50
2018-06-28T04:04:49.117Z,94.60
2018-06-28T04:07:18.421Z,94.60
2018-06-28T04:09:47.825Z,94.70
2018-06-28T04:12:17.132Z,94.50
2018-06-28T04:14:46.428Z,94.90
2018-06-28T04:17:15.752Z,94.80
2018-06-28T04:19:45.061Z,94.70
2018-06-28T04:22:18.592Z,94.70
2018-06-28T04:24:47.870Z,94.80
2018-06-28T04:27:17.209Z,94.40
2018-06-28T04:29:46.540Z,94.20
2018-06-28T04:32:16.018Z,94.40
2018-06-28T04:34:45.308Z,94.10
2018-06-28T04:37:14.676Z,94.00
2018-06-28T04:39:43.988Z,94.00
2018-06-28T04:42:13.355Z,93.80
2018-06-28T04:44:42.656Z,93.60
2018-06-28T04:47:11.976Z,93.50
2018-06-28T04:49:41.268Z,93.40
2018-06-28T04:52:10.621Z,93.80
2018-06-28T04:54:39.905Z,93.40
2018-06-28T04:57:09.253Z,93.70
2018-06-28T04:59:38.562Z,93.60
2018-06-28T05:02:07.892Z,93.70
2018-06-28T05:04:37.187Z,94.00
2018-06-28T05:07:06.548Z,93.60
2018-06-28T05:09:35.809Z,93.80
2018-06-28T05:12:05.177Z,93.90
2018-06-28T05:14:34.492Z,94.10
2018-06-28T05:17:03.909Z,94.10
2018-06-28T05:19:33.245Z,93.90
2018-06-28T05:22:02.608Z,93.60
2018-06-28T05:24:31.987Z,94.10
2018-06-28T05:27:01.313Z,94.30
2018-06-28T05:29:30.590Z,94.30
2018-06-28T05:31:59.909Z,93.60
2018-06-28T05:34:29.189Z,93.60
2018-06-28T05:36:58.540Z,93.90
2018-06-28T05:39:27.956Z,94.20
2018-06-28T05:41:57.253Z,92.80
2018-06-28T05:44:26.677Z,93.40
2018-06-28T05:46:56.197Z,93.40
2018-06-28T05:49:25.546Z,93.20
2018-06-28T05:51:54.935Z,92.80
2018-06-28T05:54:24.216Z,93.30
2018-06-28T05:56:53.529Z,92.70
2018-06-28T05:59:22.832Z,92.20
2018-06-28T06:01:52.315Z,92.10
2018-06-28T06:04:21.654Z,92.50
2018-06-28T06:06:51.038Z,92.60
2018-06-28T06:09:20.338Z,91.50
2018-06-28T06:11:50.116Z,91.60
2018-06-28T06:14:19.648Z,91.60
2018-06-28T06:16:49.236Z,91.30
2018-06-28T06:19:18.860Z,91.40
2018-06-28T06:21:48.396Z,91.60
2018-06-28T06:24:18.012Z,91.60
2018-06-28T06:26:47.604Z,91.20
2018-06-28T06:29:17.993Z,91.10
2018-06-28T06:31:48.654Z,90.90
2018-06-28T06:34:18.254Z,90.60
2018-06-28T06:36:48.197Z,90.80
2018-06-28T06:39:17.520Z,90.20
2018-06-28T06:41:46.855Z,90.00
2018-06-28T06:44:16.182Z,88.70
2018-06-28T06:46:45.525Z,87.40
2018-06-28T06:49:14.863Z,87.50
2018-06-28T06:51:44.258Z,88.20
2018-06-28T06:54:13.872Z,87.90
2018-06-28T06:56:43.434Z,87.90
2018-06-28T06:59:12.949Z,86.00
2018-06-28T07:01:42.469Z,85.40
2018-06-28T07:04:11.957Z,84.80
2018-06-28T07:06:41.535Z,84.10
2018-06-28T07:09:12.616Z,84.80
2018-06-28T07:11:42.276Z,84.00
2018-06-28T07:14:12.188Z,83.70
2018-06-28T07:16:41.749Z,83.40
2018-06-28T07:19:11.240Z,82.90
2018-06-28T07:21:40.810Z,82.70
2018-06-28T07:24:10.183Z,81.60
2018-06-28T07:26:39.529Z,82.20
2018-06-28T07:29:08.838Z,81.50
2018-06-28T07:31:38.160Z,81.40
2018-06-28T07:34:07.561Z,81.50
2018-06-28T07:36:36.872Z,82.00
2018-06-28T07:39:08.957Z,81.60
2018-06-28T07:41:38.532Z,81.10
2018-06-28T07:44:08.033Z,81.70
2018-06-28T07:46:37.441Z,81.40
2018-06-28T07:49:06.799Z,80.50
2018-06-28T07:51:36.108Z,80.80
2018-06-28T07:54:05.448Z,80.40
2018-06-28T07:56:34.917Z,80.50
2018-06-28T07:59:04.503Z,79.90
2018-06-28T08:01:34.082Z,81.40
2018-06-28T08:04:03.705Z,80.40
2018-06-28T08:06:33.189Z,81.60
2018-06-28T08:09:02.779Z,80.40
2018-06-28T08:11:32.335Z,79.80
2018-06-28T08:14:01.861Z,79.10
2018-06-28T08:16:31.394Z,80.70
2018-06-28T08:19:01.205Z,80.20
2018-06-28T08:21:30.889Z,82.80
2018-06-28T08:24:00.336Z,80.90
2018-06-28T08:26:29.654Z,80.80
2018-06-28T08:28:59.020Z,81.20
2018-06-28T08:31:28.399Z,81.20
2018-06-28T08:33:57.696Z,81.30
2018-06-28T08:36:27.069Z,80.60
2018-06-28T08:38:56.414Z,80.20
2018-06-28T08:41:25.799Z,81.40
2018-06-28T08:43:55.337Z,81.30
2018-06-28T08:46:24.971Z,80.40
2018-06-28T08:48:54.514Z,79.90
2018-06-28T08:51:24.041Z,81.00
2018-06-28T08:53:53.525Z,80.30
2018-06-28T08:56:23.049Z,80.70
2018-06-28T08:58:52.625Z,79.50
2018-06-28T09:01:22.192Z,78.10
2018-06-28T09:03:51.754Z,77.70
2018-06-28T09:06:21.080Z,79.30
2018-06-28T09:08:50.385Z,79.10
2018-06-28T09:11:19.745Z,77.10
2018-06-28T09:13:49.024Z,78.00
2018-06-28T09:16:18.445Z,77.90
2018-06-28T09:18:47.784Z,75.50
2018-06-28T09:21:17.101Z,75.70
2018-06-28T09:23:46.411Z,76.60
2018-06-28T09:26:15.757Z,73.50
2018-06-28T09:28:45.066Z,75.40
2018-06-28T09:31:14.403Z,76.50
2018-06-28T09:33:43.710Z,74.70
2018-06-28T09:36:13.049Z,72.00
2018-06-28T09:38:42.377Z,72.20
2018-06-28T09:41:11.699Z,73.80
2018-06-28T09:43:40.999Z,74.20
2018-06-28T09:46:10.468Z,72.90
2018-06-28T09:48:39.846Z,73.30
2018-06-28T09:51:09.120Z,71.60
2018-06-28T09:53:38.424Z,72.40
2018-06-28T09:56:08.056Z,72.50
2018-06-28T09:58:37.444Z,69.90
2018-06-28T10:01:07.412Z,73.20
2018-06-28T10:03:36.865Z,69.40
2018-06-28T10:06:06.464Z,68.00
2018-06-28T10:08:36.029Z,69.40
2018-06-28T10:11:05.544Z,67.10
2018-06-28T10:13:35.015Z,68.80
2018-06-28T10:16:04.764Z,68.20
2018-06-28T10:18:34.325Z,68.50
2018-06-28T10:21:03.866Z,69.70
2018-06-28T10:23:33.412Z,70.90
2018-06-28T10:26:02.721Z,70.00
2018-06-28T10:28:32.042Z,66.80
2018-06-28T10:31:01.344Z,67.40
2018-06-28T10:33:30.753Z,70.50
2018-06-28T10:36:00.057Z,67.30
2018-06-28T10:38:29.369Z,66.00
2018-06-28T10:40:58.729Z,65.40
2018-06-28T10:43:28.013Z,67.80
2018-06-28T10:45:58.534Z,66.70
2018-06-28T10:48:28.190Z,69.10
2018-06-28T10:50:57.727Z,67.20
2018-06-28T10:53:27.367Z,69.50
2018-06-28T10:55:56.676Z,69.30
2018-06-28T10:58:26.038Z,69.90
2018-06-28T11:00:55.334Z,66.50
2018-06-28T11:03:24.725Z,64.80
2018-06-28T11:05:54.016Z,65.40
2018-06-28T11:08:23.382Z,66.00
2018-06-28T11:10:52.693Z,66.50
2018-06-28T11:13:22.092Z,66.90
2018-06-28T11:15:51.373Z,66.80
2018-06-28T11:18:20.768Z,65.90
2018-06-28T11:20:50.089Z,66.50
2018-06-28T11:23:19.460Z,65.40
2018-06-28T11:25:48.762Z,65.60
2018-06-28T11:28:18.085Z,65.70
2018-06-28T11:30:47.400Z,66.40
2018-06-28T11:33:16.713Z,64.40
2018-06-28T11:35:45.976Z,63.30
2018-06-28T11:38:15.340Z,63.90
2018-06-28T11:40:44.684Z,65.00
2018-06-28T11:43:14.009Z,67.10
2018-06-28T11:45:43.343Z,64.80
2018-06-28T11:48:12.672Z,61.70
2018-06-28T11:50:41.980Z,61.90
2018-06-28T11:53:11.315Z,64.90
2018-06-28T11:55:40.575Z,63.30
2018-06-28T11:58:09.891Z,62.00
2018-06-28T12:00:39.213Z,63.80
2018-06-28T12:03:08.528Z,64.00
2018-06-28T12:05:37.899Z,62.00
2018-06-28T12:08:07.162Z,63.00
2018-06-28T12:10:36.448Z,61.90
2018-06-28T12:13:05.916Z,63.50
2018-06-28T12:15:35.204Z,61.70
2018-06-28T12:18:04.543Z,63.80
2018-06-28T12:20:33.856Z,67.00
2018-06-28T12:23:03.153Z,63.70
2018-06-28T12:25:32.632Z,61.80
2018-06-28T12:28:02.084Z,61.70
2018-06-28T12:30:31.440Z,62.20
2018-06-28T12:33:00.728Z,60.20
2018-06-28T12:35:30.053Z,60.90
2018-06-28T12:37:59.350Z,61.80
2018-06-28T12:40:28.672Z,59.90
2018-06-28T12:42:58.025Z,59.60
2018-06-28T12:45:27.429Z,60.10
2018-06-28T12:48:03.422Z,59.60
2018-06-28T12:50:32.811Z,59.80
2018-06-28T12:53:09.634Z,60.00
2018-06-28T12:56:42.530Z,59.20
2018-06-28T12:59:13.158Z,60.60
2018-06-28T13:01:42.533Z,58.80
2018-06-28T13:04:11.867Z,59.00
2018-06-28T13:06:41.193Z,57.40
2018-06-28T13:09:15.502Z,59.50
2018-06-28T13:11:44.840Z,57.50
2018-06-28T13:14:14.143Z,57.80
2018-06-28T13:16:43.522Z,56.60
2018-06-28T13:19:12.841Z,56.30
2018-06-28T13:21:42.133Z,58.80
2018-06-28T13:24:11.437Z,56.70
2018-06-28T13:26:40.751Z,58.00
2018-06-28T13:29:10.057Z,58.30
2018-06-28T13:31:39.426Z,57.20
2018-06-28T13:34:08.728Z,56.80
2018-06-28T13:36:38.071Z,56.10
2018-06-28T13:39:07.530Z,55.60
2018-06-28T13:41:37.181Z,53.50
2018-06-28T13:44:06.228Z,54.00
2018-06-28T13:46:35.567Z,55.10
2018-06-28T13:49:05.106Z,57.40
2018-06-28T13:51:34.444Z,55.60
2018-06-28T13:54:03.811Z,56.30
2018-06-28T13:56:33.181Z,56.40
2018-06-28T13:59:02.502Z,54.60
2018-06-28T14:01:31.841Z,51.10
2018-06-28T14:04:01.171Z,55.00
2018-06-28T14:06:30.474Z,52.70
2018-06-28T14:08:59.761Z,53.30
2018-06-28T14:11:29.044Z,53.00
2018-06-28T14:13:58.423Z,54.70
2018-06-28T14:16:27.752Z,53.50
2018-06-28T14:18:57.076Z,55.20
2018-06-28T14:21:26.375Z,54.70
2018-06-28T14:23:55.677Z,53.60
2018-06-28T14:26:25.048Z,54.30
2018-06-28T14:28:54.389Z,50.90
2018-06-28T14:31:26.476Z,52.80
2018-06-28T14:33:55.852Z,52.90
2018-06-28T14:36:25.256Z,51.00
2018-06-28T14:38:54.588Z,52.50
2018-06-28T14:41:23.900Z,51.80
2018-06-28T14:43:53.251Z,51.30
2018-06-28T14:46:22.561Z,50.90
2018-06-28T14:48:51.917Z,51.10
2018-06-28T14:51:21.196Z,51.20
2018-06-28T14:53:50.532Z,52.10
2018-06-28T14:56:19.830Z,52.90
2018-06-28T14:58:49.180Z,50.60
2018-06-28T15:01:18.526Z,49.70
2018-06-28T15:03:47.849Z,51.30
2018-06-28T15:06:17.140Z,49.70
2018-06-28T15:08:46.469Z,50.80
2018-06-28T15:11:22.117Z,51.60
2018-06-28T15:13:51.436Z,51.70
2018-06-28T15:16:20.727Z,52.00
2018-06-28T15:18:50.080Z,52.70
2018-06-28T15:21:19.456Z,53.20
2018-06-28T15:23:48.732Z,50.70
2018-06-28T15:26:18.026Z,53.00
2018-06-28T15:28:47.356Z,52.20
2018-06-28T15:31:16.685Z,49.90
2018-06-28T15:33:46.372Z,49.70
2018-06-28T15:36:15.737Z,49.00
2018-06-28T15:38:45.183Z,50.20
2018-06-28T15:41:14.644Z,49.60
2018-06-28T15:43:44.139Z,50.40
2018-06-28T15:46:13.639Z,51.60
2018-06-28T15:48:42.956Z,51.40
2018-06-28T15:51:12.285Z,50.40
2018-06-28T15:53:41.632Z,50.40
2018-06-28T15:56:10.997Z,49.60
2018-06-28T15:58:40.357Z,50.00
2018-06-28T16:01:09.669Z,49.90
2018-06-28T16:03:38.965Z,50.90
2018-06-28T16:06:08.296Z,52.50
2018-06-28T16:08:37.588Z,50.10
2018-06-28T16:11:07.093Z,50.80
2018-06-28T16:13:36.344Z,51.60
2018-06-28T16:16:05.884Z,54.60
2018-06-28T16:18:35.372Z,52.30
2018-06-28T16:21:04.762Z,56.20
2018-06-28T16:23:34.256Z,52.30
2018-06-28T16:26:03.637Z,52.20
2018-06-28T16:28:33.173Z,52.90
2018-06-28T16:31:02.480Z,53.70
2018-06-28T16:33:31.795Z,53.30
2018-06-28T16:36:01.108Z,54.10
2018-06-28T16:38:30.399Z,55.40
2018-06-28T16:40:59.956Z,55.70
2018-06-28T16:43:29.279Z,54.90
2018-06-28T16:45:58.630Z,53.40
2018-06-28T16:48:27.968Z,53.40
2018-06-28T16:50:57.297Z,53.20
2018-06-28T16:53:26.576Z,53.40
2018-06-28T16:55:55.928Z,54.10
2018-06-28T16:58:25.218Z,54.90
2018-06-28T17:00:54.545Z,54.70
2018-06-28T17:03:23.847Z,53.90
2018-06-28T17:05:53.165Z,54.10
2018-06-28T17:08:22.468Z,53.30
2018-06-28T17:10:51.777Z,52.90
2018-06-28T17:13:21.070Z,51.90
2018-06-28T17:15:50.410Z,51.60
2018-06-28T17:18:19.762Z,51.40
2018-06-28T17:20:49.109Z,51.30
2018-06-28T17:23:18.426Z,51.60
2018-06-28T17:25:47.797Z,52.00
2018-06-28T17:28:17.299Z,51.50
2018-06-28T17:30:46.621Z,51.40
2018-06-28T17:33:15.929Z,51.60
2018-06-28T17:35:45.423Z,50.80
2018-06-28T17:38:15.036Z,52.10
2018-06-28T17:40:44.661Z,50.90
2018-06-28T17:43:14.293Z,51.00
2018-06-28T17:45:43.853Z,51.70
2018-06-28T17:48:13.178Z,52.60
2018-06-28T17:50:42.597Z,53.60
2018-06-28T17:53:11.885Z,53.80
2018-06-28T17:55:41.228Z,54.50
2018-06-28T17:58:10.532Z,54.50
2018-06-28T18:00:39.855Z,55.20
2018-06-28T18:03:09.185Z,56.20
2018-06-28T18:05:38.480Z,57.90
2018-06-28T18:08:07.906Z,57.70
2018-06-28T18:10:37.179Z,58.90
2018-06-28T18:13:06.590Z,60.00
2018-06-28T18:15:36.005Z,60.30
2018-06-28T18:18:05.388Z,60.00
2018-06-28T18:20:34.847Z,60.20
2018-06-28T18:23:04.289Z,60.60
2018-06-28T18:25:33.656Z,62.30
2018-06-28T18:28:03.020Z,63.00
2018-06-28T18:30:32.394Z,63.80
2018-06-28T18:33:01.748Z,63.50
2018-06-28T18:35:31.104Z,65.10
2018-06-28T18:38:00.530Z,66.30
2018-06-28T18:40:29.816Z,66.90
2018-06-28T18:42:59.135Z,66.90
2018-06-28T18:45:28.424Z,67.30
2018-06-28T18:47:57.763Z,67.60
2018-06-28T18:50:27.358Z,68.10
2018-06-28T18:52:56.790Z,69.90
2018-06-28T18:55:26.312Z,71.30
2018-06-28T18:57:55.639Z,72.40
2018-06-28T19:00:24.920Z,73.40
2018-06-28T19:02:54.219Z,73.90
2018-06-28T19:05:23.500Z,74.80
2018-06-28T19:07:52.852Z,76.00
2018-06-28T19:10:28.486Z,76.80
2018-06-28T19:12:57.839Z,76.80
2018-06-28T19:15:32.400Z,77.50
2018-06-28T19:18:02.080Z,77.50
2018-06-28T19:20:31.675Z,78.10
2018-06-28T19:23:06.247Z,78.10
2018-06-28T19:25:35.543Z,79.10
2018-06-28T19:28:04.859Z,80.80
2018-06-28T19:30:39.324Z,82.00
2018-06-28T19:33:08.654Z,82.70
2018-06-28T19:35:37.962Z,83.00
2018-06-28T19:38:07.333Z,83.30
2018-06-28T19:40:41.941Z,83.80
2018-06-28T19:43:11.263Z,84.70
2018-06-28T19:45:40.599Z,85.20
2018-06-28T19:48:09.940Z,86.10
2018-06-28T19:50:44.343Z,86.80
2018-06-28T19:53:14.913Z,87.50
2018-06-28T19:55:44.216Z,88.50
2018-06-28T19:58:13.545Z,89.00
2018-06-28T20:00:48.177Z,89.10
2018-06-28T20:03:22.880Z,89.70
2018-06-28T20:05:52.163Z,90.10
2018-06-28T20:08:21.493Z,89.90
2018-06-28T20:10:50.896Z,90.30
2018-06-28T20:13:25.625Z,90.40
2018-06-28T20:16:00.391Z,90.30
2018-06-28T20:18:34.935Z,90.10
2018-06-28T20:21:04.339Z,90.00
2018-06-28T20:23:33.821Z,90.20
2018-06-28T20:26:08.188Z,90.40
2018-06-28T20:28:42.866Z,90.90
2018-06-28T20:31:17.392Z,90.30
2018-06-28T20:33:52.101Z,90.30
2018-06-28T20:36:21.428Z,90.30
2018-06-28T20:38:50.751Z,90.50
2018-06-28T20:41:20.046Z,90.40
2018-06-28T20:43:49.409Z,90.70
2018-06-28T20:46:18.748Z,90.80
2018-06-28T20:48:48.049Z,91.00
2018-06-28T20:51:17.380Z,91.00
2018-06-28T20:53:46.687Z,90.70
2018-06-28T20:56:15.985Z,90.70
2018-06-28T20:58:46.467Z,91.00
2018-06-28T21:01:15.786Z,91.10
2018-06-28T21:03:45.264Z,91.20
2018-06-28T21:06:14.544Z,91.50
2018-06-28T21:08:43.883Z,91.50
2018-06-28T21:11:13.221Z,91.80
2018-06-28T21:13:42.511Z,91.70
2018-06-28T21:16:11.831Z,91.60
2018-06-28T21:18:41.163Z,91.60
2018-06-28T21:21:10.500Z,91.50
2018-06-28T21:23:39.975Z,92.10
2018-06-28T21:26:09.516Z,91.90
2018-06-28T21:28:39.042Z,92.10
2018-06-28T21:31:08.352Z,92.10
2018-06-28T21:33:37.626Z,92.30
2018-06-28T21:36:07.042Z,92.30
2018-06-28T21:38:36.346Z,92.50
2018-06-28T21:41:06.005Z,92.60
2018-06-28T21:43:35.284Z,92.80
2018-06-28T21:46:04.891Z,93.00
2018-06-28T21:48:34.364Z,93.00
2018-06-28T21:51:03.987Z,93.00
2018-06-28T21:53:33.276Z,93.00
2018-06-28T21:56:02.716Z,92.80
2018-06-28T21:58:32.045Z,93.00
2018-06-28T22:01:01.380Z,92.30
2018-06-28T22:03:30.705Z,92.90
2018-06-28T22:06:00.028Z,93.00
2018-06-28T22:08:29.293Z,92.90
2018-06-28T22:10:58.619Z,93.00
2018-06-28T22:13:27.884Z,93.00
2018-06-28T22:15:57.255Z,93.10
2018-06-28T22:18:26.618Z,92.80
2018-06-28T22:20:55.962Z,92.50
2018-06-28T22:23:25.261Z,92.30
2018-06-28T22:25:54.624Z,92.60
2018-06-28T22:28:23.908Z,92.80
2018-06-28T22:30:53.220Z,93.10
2018-06-28T22:33:22.495Z,93.30
2018-06-28T22:35:51.893Z,92.90
2018-06-28T22:38:21.181Z,93.30
2018-06-28T22:40:50.504Z,93.60
2018-06-28T22:43:19.807Z,93.20
2018-06-28T22:45:49.164Z,93.00
2018-06-28T22:48:18.460Z,93.10
2018-06-28T22:50:47.850Z,93.20
2018-06-28T22:53:17.104Z,93.20
2018-06-28T22:55:46.613Z,93.10
2018-06-28T22:58:15.931Z,93.20
2018-06-28T23:00:45.204Z,93.20
2018-06-28T23:03:14.512Z,93.20
2018-06-28T23:05:43.851Z,92.90
2018-06-28T23:08:13.204Z,92.80
2018-06-28T23:10:42.479Z,92.80
2018-06-28T23:13:11.804Z,92.60
2018-06-28T23:15:41.080Z,93.20
2018-06-28T23:18:10.421Z,93.70
2018-06-28T23:20:39.705Z,93.60
2018-06-28T23:23:09.041Z,93.70
2018-06-28T23:25:38.461Z,93.50
2018-06-28T23:28:08.082Z,93.60
2018-06-28T23:30:37.661Z,94.10
2018-06-28T23:33:07.254Z,93.90
2018-06-28T23:35:36.729Z,93.90
2018-06-28T23:38:06.526Z,93.80
2018-06-28T23:40:35.860Z,93.70
2018-06-28T23:43:05.244Z,94.20
2018-06-28T23:45:34.564Z,93.90
2018-06-28T23:48:03.942Z,93.90
2018-06-28T23:50:33.208Z,94.00
2018-06-28T23:53:02.551Z,94.10
2018-06-28T23:55:31.838Z,94.00
2018-06-28T23:58:01.200Z,94.00
